Jpo Aquarius — CQHE — position and weather

sailwx.info

Track history (hours):
 
Tides and Currents Weather Stations Pressure Air Temp Water Temp Dewpoint Dewpoint Depression Visibility Wind Speed Wind Dir Waves Ship Positions

Jpo Aquarius

Last reported at 2018-Feb-19 06:00 UTC. Time now 2018-Feb-19 16:15 UTC.
Position N 15°36' W 075°00'.

Length 207 m; draft 11 m.

Type: Ship. MMSI: 255805580.

Wind from 040 at 25 knots

Barometer 1015.0 mb
Air temperature 25.0 ° C
Visibility: greater than 5.4 NM
Dewpoint 22.2 ° C

Date/timePositionNaut miles runAvg speedWind from/ knotsBaromVisibWave heightAir tempDewpointWater temp
2018-Feb-19 06:00N 15°36' W 075°00'103 8.6 040 / 251015.0 5.4 25.022.2
2018-Feb-18 18:00N 13°54' W 075°12'212 5.8 040 / 301014.0 5.4 28.022.4
2018-Feb-17 05:36N 10°22' W 075°31'0 0.0
2018-Feb-17 05:15N 10°22' W 075°31'0 0.0
2018-Feb-17 04:54N 10°23' W 075°31'1 2.8
2018-Feb-17 04:29N 10°22' W 075°32'510.4
2018-Feb-17 03:59N 10°19' W 075°36'3 5.7
2018-Feb-17 03:29N 10°18' W 075°39'2 4.7
2018-Feb-17 03:00N 10°18' W 075°41'3 6.1
2018-Feb-17 02:29N 10°18' W 075°44'2 3.8
2018-Feb-17 02:00N 10°17' W 075°46'4 7.6
2018-Feb-17 01:29N 10°17' W 075°50'3 6.8
2018-Feb-17 01:01N 10°16' W 075°53'5 9.1
2018-Feb-17 00:29N 10°15' W 075°58'5 9.0
2018-Feb-16 23:59N 10°15' W 076°03'4 9.3
2018-Feb-16 23:30N 10°15' W 076°07'5 9.2
2018-Feb-16 22:56N 10°14' W 076°12'21910.1
2018-Feb-16 01:08N 09°31' W 079°50'210.6
2018-Feb-16 00:59N 09°29' W 079°51'510.6
2018-Feb-16 00:31N 09°25' W 079°55'4 8.4
2018-Feb-16 00:01N 09°21' W 079°55'1 1.2
2018-Feb-15 23:29N 09°21' W 079°54'0 0.0
2018-Feb-15 22:59N 09°21' W 079°54'0 0.0
2018-Feb-15 22:29N 09°21' W 079°54'0 0.0
2018-Feb-15 21:59N 09°21' W 079°54'0 0.0
2018-Feb-15 21:29N 09°21' W 079°54'0 0.0
2018-Feb-15 20:59N 09°21' W 079°54'0 0.0
2018-Feb-15 20:29N 09°21' W 079°54'0 0.0
2018-Feb-15 19:59N 09°21' W 079°54'0 0.0
2018-Feb-15 19:29N 09°21' W 079°54'0 0.0
2018-Feb-15 18:59N 09°21' W 079°54'0 0.0
2018-Feb-15 18:29N 09°21' W 079°54'0 0.0
2018-Feb-15 18:01N 09°21' W 079°54'0 0.3
2018-Feb-15 17:30N 09°21' W 079°54'0 0.3
2018-Feb-15 16:58N 09°21' W 079°54'0 0.0
2018-Feb-15 16:28N 09°21' W 079°54'0 0.0
2018-Feb-15 15:56N 09°21' W 079°54'0 0.1
2018-Feb-15 15:29N 09°21' W 079°54'0 0.0
2018-Feb-15 15:00N 09°21' W 079°54'0 0.0
2018-Feb-15 14:30N 09°21' W 079°54'0 0.0
2018-Feb-15 14:00N 09°21' W 079°54'0 0.0
2018-Feb-15 13:30N 09°21' W 079°54'0 0.0
2018-Feb-15 13:00N 09°21' W 079°54'0 0.0
2018-Feb-15 12:29N 09°21' W 079°54'0 0.0
2018-Feb-15 11:59N 09°21' W 079°54'0 0.0
2018-Feb-15 11:29N 09°21' W 079°54'0 0.0
2018-Feb-15 10:59N 09°21' W 079°54'0 0.0
2018-Feb-15 10:29N 09°21' W 079°54'0 0.0
2018-Feb-15 09:59N 09°21' W 079°54'0 0.0
2018-Feb-15 09:29N 09°21' W 079°54'0 0.0
2018-Feb-15 08:59N 09°21' W 079°54'0 0.0
2018-Feb-15 08:29N 09°21' W 079°54'0 0.0
2018-Feb-15 07:59N 09°21' W 079°54'0 0.0
2018-Feb-15 07:29N 09°21' W 079°54'0 0.0
2018-Feb-15 06:59N 09°21' W 079°54'0 0.0
2018-Feb-15 06:23N 09°21' W 079°54'0 0.0
2018-Feb-15 05:59N 09°21' W 079°54'0 0.0
2018-Feb-15 05:29N 09°21' W 079°54'0 0.0
2018-Feb-15 04:59N 09°21' W 079°54'0 0.0
2018-Feb-15 04:29N 09°21' W 079°54'0 0.0
2018-Feb-15 03:59N 09°21' W 079°54'0 0.0
2018-Feb-15 03:29N 09°21' W 079°54'0 0.0
2018-Feb-15 02:59N 09°21' W 079°54'0 0.0
2018-Feb-15 02:29N 09°21' W 079°54'0 0.0
2018-Feb-15 01:59N 09°21' W 079°54'0 0.0
2018-Feb-15 01:29N 09°21' W 079°54'0 0.0
2018-Feb-15 00:59N 09°21' W 079°54'0 0.7
2018-Feb-15 00:31N 09°21' W 079°55'2 4.1
2018-Feb-15 00:00N 09°23' W 079°55'3 5.7
2018-Feb-14 23:30N 09°26' W 079°55'1 2.2
2018-Feb-14 23:00N 09°27' W 079°55'1 2.5
2018-Feb-14 22:31N 09°28' W 079°55'1 2.2
2018-Feb-14 22:01N 09°28' W 079°54'2 3.3
2018-Feb-14 21:31N 09°27' W 079°52'1 1.1
2018-Feb-14 20:58N 09°27' W 079°52'0 0.1
2018-Feb-14 20:28N 09°27' W 079°52'0 0.0
2018-Feb-14 19:58N 09°27' W 079°52'0 0.0
2018-Feb-14 19:28N 09°27' W 079°52'0 0.0
2018-Feb-14 18:55N 09°27' W 079°52'0 0.0
2018-Feb-14 18:28N 09°27' W 079°52'0 0.0
2018-Feb-14 17:58N 09°27' W 079°52'0 0.0
2018-Feb-14 17:28N 09°27' W 079°52'0 0.0
2018-Feb-14 16:58N 09°27' W 079°52'0 0.0
2018-Feb-14 16:28N 09°27' W 079°52'0 0.1
2018-Feb-14 16:00N 09°27' W 079°52'1 2.4
2018-Feb-14 15:31N 09°27' W 079°53'4 8.4
2018-Feb-14 15:00N 09°31' W 079°54'510.7
2018-Feb-14 14:30N 09°36' W 079°51'511.0
2018-Feb-14 14:00N 09°41' W 079°49'  
Track history (hours):
 
Tides and Currents Weather Stations Pressure Air Temp Water Temp Dewpoint Dewpoint Depression Visibility Wind Speed Wind Dir Waves Ship Positions

Jpo Aquarius

Last reported at 2018-Feb-19 06:00 UTC. Time now 2018-Feb-19 16:15 UTC.
Position N 15°36' W 075°00'.

Length 207 m; draft 11 m.

Type: Ship. MMSI: 255805580.

Wind from 040 at 25 knots

Barometer 1015.0 mb
Air temperature 25.0 ° C
Visibility: greater than 5.4 NM
Dewpoint 22.2 ° C

Date/timePositionNaut miles runAvg speedWind from/ knotsBaromVisibWave heightAir tempDewpointWater temp
2018-Feb-19 06:00N 15°36' W 075°00'103 8.6 040 / 251015.0 5.4 25.022.2
2018-Feb-18 18:00N 13°54' W 075°12'212 5.8 040 / 301014.0 5.4 28.022.4
2018-Feb-17 05:36N 10°22' W 075°31'0 0.0
2018-Feb-17 05:15N 10°22' W 075°31'0 0.0
2018-Feb-17 04:54N 10°23' W 075°31'1 2.8
2018-Feb-17 04:29N 10°22' W 075°32'510.4
2018-Feb-17 03:59N 10°19' W 075°36'3 5.7
2018-Feb-17 03:29N 10°18' W 075°39'2 4.7
2018-Feb-17 03:00N 10°18' W 075°41'3 6.1
2018-Feb-17 02:29N 10°18' W 075°44'2 3.8
2018-Feb-17 02:00N 10°17' W 075°46'4 7.6
2018-Feb-17 01:29N 10°17' W 075°50'3 6.8
2018-Feb-17 01:01N 10°16' W 075°53'5 9.1
2018-Feb-17 00:29N 10°15' W 075°58'5 9.0
2018-Feb-16 23:59N 10°15' W 076°03'4 9.3
2018-Feb-16 23:30N 10°15' W 076°07'5 9.2
2018-Feb-16 22:56N 10°14' W 076°12'21910.1
2018-Feb-16 01:08N 09°31' W 079°50'210.6
2018-Feb-16 00:59N 09°29' W 079°51'510.6
2018-Feb-16 00:31N 09°25' W 079°55'4 8.4
2018-Feb-16 00:01N 09°21' W 079°55'1 1.2
2018-Feb-15 23:29N 09°21' W 079°54'0 0.0
2018-Feb-15 22:59N 09°21' W 079°54'0 0.0
2018-Feb-15 22:29N 09°21' W 079°54'0 0.0
2018-Feb-15 21:59N 09°21' W 079°54'0 0.0
2018-Feb-15 21:29N 09°21' W 079°54'0 0.0
2018-Feb-15 20:59N 09°21' W 079°54'0 0.0
2018-Feb-15 20:29N 09°21' W 079°54'0 0.0
2018-Feb-15 19:59N 09°21' W 079°54'0 0.0
2018-Feb-15 19:29N 09°21' W 079°54'0 0.0
2018-Feb-15 18:59N 09°21' W 079°54'0 0.0
2018-Feb-15 18:29N 09°21' W 079°54'0 0.0
2018-Feb-15 18:01N 09°21' W 079°54'0 0.3
2018-Feb-15 17:30N 09°21' W 079°54'0 0.3
2018-Feb-15 16:58N 09°21' W 079°54'0 0.0
2018-Feb-15 16:28N 09°21' W 079°54'0 0.0
2018-Feb-15 15:56N 09°21' W 079°54'0 0.1
2018-Feb-15 15:29N 09°21' W 079°54'0 0.0
2018-Feb-15 15:00N 09°21' W 079°54'0 0.0
2018-Feb-15 14:30N 09°21' W 079°54'0 0.0
2018-Feb-15 14:00N 09°21' W 079°54'0 0.0
2018-Feb-15 13:30N 09°21' W 079°54'0 0.0
2018-Feb-15 13:00N 09°21' W 079°54'0 0.0
2018-Feb-15 12:29N 09°21' W 079°54'0 0.0
2018-Feb-15 11:59N 09°21' W 079°54'0 0.0
2018-Feb-15 11:29N 09°21' W 079°54'0 0.0
2018-Feb-15 10:59N 09°21' W 079°54'0 0.0
2018-Feb-15 10:29N 09°21' W 079°54'0 0.0
2018-Feb-15 09:59N 09°21' W 079°54'0 0.0
2018-Feb-15 09:29N 09°21' W 079°54'0 0.0
2018-Feb-15 08:59N 09°21' W 079°54'0 0.0
2018-Feb-15 08:29N 09°21' W 079°54'0 0.0
2018-Feb-15 07:59N 09°21' W 079°54'0 0.0
2018-Feb-15 07:29N 09°21' W 079°54'0 0.0
2018-Feb-15 06:59N 09°21' W 079°54'0 0.0
2018-Feb-15 06:23N 09°21' W 079°54'0 0.0
2018-Feb-15 05:59N 09°21' W 079°54'0 0.0
2018-Feb-15 05:29N 09°21' W 079°54'0 0.0
2018-Feb-15 04:59N 09°21' W 079°54'0 0.0
2018-Feb-15 04:29N 09°21' W 079°54'0 0.0
2018-Feb-15 03:59N 09°21' W 079°54'0 0.0
2018-Feb-15 03:29N 09°21' W 079°54'0 0.0
2018-Feb-15 02:59N 09°21' W 079°54'0 0.0
2018-Feb-15 02:29N 09°21' W 079°54'0 0.0
2018-Feb-15 01:59N 09°21' W 079°54'0 0.0
2018-Feb-15 01:29N 09°21' W 079°54'0 0.0
2018-Feb-15 00:59N 09°21' W 079°54'0 0.7
2018-Feb-15 00:31N 09°21' W 079°55'2 4.1
2018-Feb-15 00:00N 09°23' W 079°55'3 5.7
2018-Feb-14 23:30N 09°26' W 079°55'1 2.2
2018-Feb-14 23:00N 09°27' W 079°55'1 2.5
2018-Feb-14 22:31N 09°28' W 079°55'1 2.2
2018-Feb-14 22:01N 09°28' W 079°54'2 3.3
2018-Feb-14 21:31N 09°27' W 079°52'1 1.1
2018-Feb-14 20:58N 09°27' W 079°52'0 0.1
2018-Feb-14 20:28N 09°27' W 079°52'0 0.0
2018-Feb-14 19:58N 09°27' W 079°52'0 0.0
2018-Feb-14 19:28N 09°27' W 079°52'0 0.0
2018-Feb-14 18:55N 09°27' W 079°52'0 0.0
2018-Feb-14 18:28N 09°27' W 079°52'0 0.0
2018-Feb-14 17:58N 09°27' W 079°52'0 0.0
2018-Feb-14 17:28N 09°27' W 079°52'0 0.0
2018-Feb-14 16:58N 09°27' W 079°52'0 0.0
2018-Feb-14 16:28N 09°27' W 079°52'0 0.1
2018-Feb-14 16:00N 09°27' W 079°52'1 2.4
2018-Feb-14 15:31N 09°27' W 079°53'4 8.4
2018-Feb-14 15:00N 09°31' W 079°54'510.7
2018-Feb-14 14:30N 09°36' W 079°51'511.0
2018-Feb-14 14:00N 09°41' W 079°49'  

Dump ship's entire track history